createdAt,value
2023-01-10T00:00:55.469Z,95128.72
2023-01-10T00:03:26.343Z,95135.44
2023-01-10T00:05:55.908Z,95129.53
2023-01-10T00:08:25.307Z,95136.00
2023-01-10T00:10:54.767Z,95132.19
2023-01-10T00:13:23.285Z,95131.50
2023-01-10T00:15:53.829Z,95139.34
2023-01-10T00:18:25.432Z,95136.91
2023-01-10T00:20:54.870Z,95138.50
2023-01-10T00:23:24.387Z,95139.91
2023-01-10T00:25:53.871Z,95142.31
2023-01-10T00:28:23.832Z,95146.72
2023-01-10T00:31:01.043Z,95149.63
2023-01-10T00:33:32.707Z,95148.56
2023-01-10T00:36:04.464Z,95142.66
2023-01-10T00:38:36.920Z,95161.41
2023-01-10T00:41:28.553Z,95161.16
2023-01-10T00:43:57.136Z,95157.69
2023-01-10T00:46:27.455Z,95158.75
2023-01-10T00:48:58.326Z,95165.81
2023-01-10T00:51:27.728Z,95169.84
2023-01-10T00:53:57.627Z,95180.94
2023-01-10T00:56:27.188Z,95180.72
2023-01-10T00:58:56.727Z,95188.16
2023-01-10T01:01:26.555Z,95189.06
2023-01-10T01:03:59.413Z,95193.59
2023-01-10T01:06:29.388Z,95198.09
2023-01-10T01:08:58.898Z,95208.63
2023-01-10T01:11:28.307Z,95207.22
2023-01-10T01:13:57.758Z,95211.97
2023-01-10T01:16:27.342Z,95213.94
2023-01-10T01:18:59.155Z,95219.72
2023-01-10T01:21:28.646Z,95225.34
2023-01-10T01:23:58.246Z,95232.88
2023-01-10T01:26:28.199Z,95244.34
2023-01-10T01:28:57.685Z,95256.13
2023-01-10T01:31:27.541Z,95256.38
2023-01-10T01:33:58.584Z,95260.41
2023-01-10T01:36:28.069Z,95263.53
2023-01-10T01:38:57.551Z,95268.25
2023-01-10T01:41:56.003Z,95271.94
2023-01-10T01:44:31.129Z,95276.22
2023-01-10T01:47:07.408Z,95278.31
2023-01-10T01:49:42.310Z,95283.84
2023-01-10T01:52:20.111Z,95292.50
2023-01-10T01:54:49.728Z,95293.00
2023-01-10T01:57:25.623Z,95292.84
2023-01-10T01:59:57.348Z,95289.47
2023-01-10T02:02:33.371Z,95290.88
2023-01-10T02:05:10.647Z,95286.81
2023-01-10T02:07:46.052Z,95294.81
2023-01-10T02:10:25.190Z,95299.66
2023-01-10T02:13:02.385Z,95296.28
2023-01-10T02:15:35.820Z,95302.78
2023-01-10T02:18:06.212Z,95304.25
2023-01-10T02:20:52.775Z,95312.81
2023-01-10T02:24:25.357Z,95304.97
2023-01-10T02:27:21.423Z,95311.44
2023-01-10T02:30:58.902Z,95316.88
2023-01-10T02:33:35.653Z,95326.09
2023-01-10T02:36:30.628Z,95330.69
2023-01-10T02:39:12.578Z,95333.03
2023-01-10T02:41:52.193Z,95330.00
2023-01-10T02:44:30.137Z,95330.69
2023-01-10T02:46:59.561Z,95337.84
2023-01-10T02:49:30.396Z,95339.69
2023-01-10T02:51:59.993Z,95342.94
2023-01-10T02:54:31.497Z,95346.63
2023-01-10T02:57:45.032Z,95352.06
2023-01-10T03:00:38.644Z,95361.88
2023-01-10T03:03:36.307Z,95367.69
2023-01-10T03:06:24.506Z,95370.34
2023-01-10T03:09:04.480Z,95370.94
2023-01-10T03:11:44.512Z,95371.66
2023-01-10T03:14:20.228Z,95378.69
2023-01-10T03:16:55.255Z,95389.66
2023-01-10T03:19:29.565Z,95390.25
2023-01-10T03:22:03.651Z,95387.06
2023-01-10T03:24:40.608Z,95386.69
2023-01-10T03:27:20.719Z,95402.78
2023-01-10T03:29:59.587Z,95404.63
2023-01-10T03:32:32.662Z,95409.97
2023-01-10T03:35:03.760Z,95417.00
2023-01-10T03:37:43.563Z,95420.25
2023-01-10T03:40:25.854Z,95428.66
2023-01-10T03:43:20.875Z,95436.09
2023-01-10T03:45:59.789Z,95445.91
2023-01-10T03:48:36.491Z,95464.19
2023-01-10T03:51:08.408Z,95464.56
2023-01-10T03:53:41.426Z,95477.19
2023-01-10T03:56:15.250Z,95476.00
2023-01-10T03:58:44.950Z,95480.19
2023-01-10T04:01:14.535Z,95483.97
2023-01-10T04:03:44.259Z,95480.28
2023-01-10T04:06:13.843Z,95490.91
2023-01-10T04:08:44.822Z,95486.56
2023-01-10T04:11:14.254Z,95493.94
2023-01-10T04:13:43.794Z,95498.00
2023-01-10T04:16:13.222Z,95500.66
